createdAt,value
2023-05-14T00:00:26.756Z,11.01
2023-05-14T00:02:54.267Z,11.01
2023-05-14T00:05:21.428Z,11.00
2023-05-14T00:07:48.314Z,10.94
2023-05-14T00:10:15.324Z,10.89
2023-05-14T00:12:42.513Z,10.88
2023-05-14T00:15:09.809Z,10.87
2023-05-14T00:17:37.496Z,10.83
2023-05-14T00:20:07.253Z,10.77
2023-05-14T00:22:34.976Z,10.72
2023-05-14T00:25:01.962Z,10.68
2023-05-14T00:27:31.484Z,10.67
2023-05-14T00:29:58.492Z,10.65
2023-05-14T00:32:25.630Z,10.57
2023-05-14T00:34:52.777Z,10.52
2023-05-14T00:37:19.860Z,10.50
2023-05-14T00:39:47.004Z,10.42
2023-05-14T00:42:14.089Z,10.34
2023-05-14T00:44:41.190Z,10.30
2023-05-14T00:47:08.561Z,10.24
2023-05-14T00:49:35.836Z,10.22
2023-05-14T00:52:02.810Z,10.25
2023-05-14T00:54:29.903Z,10.24
2023-05-14T00:56:56.841Z,10.21
2023-05-14T00:59:23.986Z,10.20
2023-05-14T01:01:51.129Z,10.16
2023-05-14T01:04:18.685Z,10.17
2023-05-14T01:07:02.727Z,10.12
2023-05-14T01:09:36.470Z,10.08
2023-05-14T01:12:27.105Z,10.05
2023-05-14T01:15:13.461Z,10.02
2023-05-14T01:17:47.280Z,9.95
2023-05-14T01:20:14.851Z,9.84
2023-05-14T01:22:41.827Z,9.81
2023-05-14T01:25:09.946Z,9.78
2023-05-14T01:27:50.307Z,9.76
2023-05-14T01:30:24.382Z,9.72
2023-05-14T01:32:53.434Z,9.66
2023-05-14T01:35:22.573Z,9.65
2023-05-14T01:37:49.807Z,9.65
2023-05-14T01:40:16.903Z,9.62
2023-05-14T01:42:43.988Z,9.61
2023-05-14T01:45:11.162Z,9.61
2023-05-14T01:47:38.173Z,9.57
2023-05-14T01:50:05.585Z,9.56
2023-05-14T01:52:32.747Z,9.57
2023-05-14T01:55:00.227Z,9.54
2023-05-14T01:57:27.364Z,9.48
2023-05-14T01:59:54.295Z,9.45
2023-05-14T02:02:21.607Z,9.44
2023-05-14T02:04:48.666Z,9.46
2023-05-14T02:07:15.773Z,9.46
2023-05-14T02:09:42.844Z,9.44
2023-05-14T02:12:11.150Z,9.47
2023-05-14T02:14:38.321Z,9.54
2023-05-14T02:17:05.858Z,9.58
2023-05-14T02:19:33.123Z,9.61
2023-05-14T02:22:01.236Z,9.62
2023-05-14T02:24:28.490Z,9.61
2023-05-14T02:26:55.800Z,9.60
2023-05-14T02:29:23.569Z,9.64
2023-05-14T02:31:50.637Z,9.65
2023-05-14T02:34:17.627Z,9.68
2023-05-14T02:36:44.617Z,9.70
2023-05-14T02:39:11.791Z,9.68
2023-05-14T02:41:38.897Z,9.69
2023-05-14T02:44:06.117Z,9.68
2023-05-14T02:46:33.467Z,9.69
2023-05-14T02:49:03.036Z,9.72
2023-05-14T02:51:30.059Z,9.77
2023-05-14T02:53:57.122Z,9.82
2023-05-14T02:56:24.216Z,9.82
2023-05-14T02:58:51.293Z,9.83
2023-05-14T03:01:18.937Z,9.83
2023-05-14T03:03:46.495Z,9.82
2023-05-14T03:06:13.648Z,9.85
2023-05-14T03:08:41.768Z,9.86
2023-05-14T03:11:08.800Z,9.91
2023-05-14T03:13:35.824Z,10.00
2023-05-14T03:16:02.834Z,10.07
2023-05-14T03:18:30.870Z,10.18
2023-05-14T03:20:58.149Z,10.27
2023-05-14T03:23:25.148Z,10.35
2023-05-14T03:25:52.733Z,10.45
2023-05-14T03:28:19.825Z,10.53
2023-05-14T03:30:46.960Z,10.63
2023-05-14T03:33:14.080Z,10.71
2023-05-14T03:35:41.131Z,10.79
2023-05-14T03:38:08.260Z,10.92
2023-05-14T03:40:35.344Z,11.03
2023-05-14T03:43:02.595Z,11.12
2023-05-14T03:45:30.501Z,11.22
2023-05-14T03:47:59.333Z,11.35
2023-05-14T03:50:26.935Z,11.52
2023-05-14T03:52:55.039Z,11.71
2023-05-14T03:55:22.113Z,11.90
2023-05-14T03:57:49.187Z,12.07
2023-05-14T04:00:16.478Z,12.22
2023-05-14T04:02:46.379Z,12.35
2023-05-14T04:05:13.523Z,12.61
2023-05-14T04:07:40.551Z,12.81
2023-05-14T04:10:08.184Z,12.91
2023-05-14T04:12:36.513Z,12.83
2023-05-14T04:15:04.272Z,12.77
2023-05-14T04:17:34.569Z,12.66
2023-05-14T04:20:02.160Z,12.60
2023-05-14T04:22:30.290Z,12.51
2023-05-14T04:24:57.200Z,12.41
2023-05-14T04:27:24.327Z,12.28
2023-05-14T04:29:51.377Z,12.23
2023-05-14T04:32:18.636Z,12.23
2023-05-14T04:34:46.980Z,12.29
2023-05-14T04:37:14.130Z,12.27
2023-05-14T04:39:41.192Z,12.27
2023-05-14T04:42:08.258Z,12.31
2023-05-14T04:44:36.360Z,12.37
2023-05-14T04:47:04.352Z,12.51
2023-05-14T04:49:31.378Z,12.59
2023-05-14T04:51:58.646Z,12.63
2023-05-14T04:54:25.790Z,12.65
2023-05-14T04:56:53.015Z,12.66
2023-05-14T04:59:20.164Z,12.65
2023-05-14T05:01:47.434Z,12.67
2023-05-14T05:04:14.755Z,12.67
2023-05-14T05:06:41.886Z,12.73
2023-05-14T05:09:09.553Z,12.79
2023-05-14T05:11:36.540Z,12.91
2023-05-14T05:14:03.569Z,13.03
2023-05-14T05:16:30.857Z,13.32
2023-05-14T05:18:58.178Z,13.75
2023-05-14T05:21:25.302Z,14.06
2023-05-14T05:23:52.353Z,14.42
2023-05-14T05:26:19.382Z,14.79
2023-05-14T05:28:46.497Z,15.11
2023-05-14T05:31:13.426Z,15.37
2023-05-14T05:33:40.572Z,15.61
2023-05-14T05:36:07.778Z,15.87
2023-05-14T05:38:34.888Z,16.12
2023-05-14T05:41:02.041Z,16.28
2023-05-14T05:43:29.141Z,16.51
2023-05-14T05:45:56.552Z,16.63
2023-05-14T05:48:23.559Z,16.81
2023-05-14T05:50:51.635Z,17.03
2023-05-14T05:53:18.653Z,17.22
2023-05-14T05:55:45.684Z,17.39
2023-05-14T05:58:15.747Z,17.56
2023-05-14T06:00:43.046Z,17.71
2023-05-14T06:03:10.023Z,17.85
2023-05-14T06:05:37.320Z,18.00
2023-05-14T06:08:04.813Z,18.16
2023-05-14T06:10:32.132Z,18.28
2023-05-14T06:12:59.164Z,18.40
2023-05-14T06:15:26.161Z,18.48
2023-05-14T06:17:53.254Z,18.56
2023-05-14T06:20:20.430Z,18.65
2023-05-14T06:22:47.513Z,18.81
2023-05-14T06:25:14.434Z,18.97
2023-05-14T06:27:41.614Z,19.18
2023-05-14T06:30:09.226Z,19.40
2023-05-14T06:32:36.380Z,19.51
2023-05-14T06:35:04.252Z,19.63
2023-05-14T06:37:33.471Z,19.65
2023-05-14T06:40:01.441Z,19.79
2023-05-14T06:42:28.967Z,19.89
2023-05-14T06:44:56.226Z,19.89
2023-05-14T06:47:23.286Z,19.83
2023-05-14T06:49:50.488Z,19.82
2023-05-14T06:52:17.399Z,19.88
2023-05-14T06:54:44.436Z,20.07
2023-05-14T06:57:11.400Z,20.13
2023-05-14T06:59:38.496Z,20.04
2023-05-14T07:02:05.629Z,19.95
2023-05-14T07:04:32.708Z,19.73
2023-05-14T07:06:59.812Z,19.48
2023-05-14T07:09:26.703Z,19.53
2023-05-14T07:11:53.878Z,19.69
2023-05-14T07:14:21.094Z,19.82
2023-05-14T07:16:48.170Z,19.93
2023-05-14T07:19:15.268Z,19.89
2023-05-14T07:21:42.391Z,19.93
2023-05-14T07:24:09.444Z,20.00
2023-05-14T07:26:37.042Z,20.16
2023-05-14T07:29:03.959Z,20.36
2023-05-14T07:31:31.061Z,20.52
2023-05-14T07:33:58.264Z,20.58
2023-05-14T07:36:25.400Z,20.63
2023-05-14T07:38:52.422Z,20.74
2023-05-14T07:41:19.472Z,20.68
2023-05-14T07:43:46.374Z,20.75
2023-05-14T07:46:13.337Z,20.80
2023-05-14T07:48:40.600Z,20.99
2023-05-14T07:51:07.865Z,21.12
2023-05-14T07:53:34.835Z,20.87
2023-05-14T07:56:01.829Z,20.63
2023-05-14T07:58:29.017Z,20.63
2023-05-14T08:00:56.722Z,20.70
2023-05-14T08:03:24.095Z,20.81
2023-05-14T08:05:52.524Z,20.94
2023-05-14T08:08:19.810Z,21.05
2023-05-14T08:10:46.915Z,21.27
2023-05-14T08:13:13.883Z,21.20
2023-05-14T08:15:40.948Z,21.11
2023-05-14T08:18:08.028Z,20.98
2023-05-14T08:20:35.209Z,21.05
2023-05-14T08:23:02.271Z,21.21
2023-05-14T08:25:29.396Z,21.31
2023-05-14T08:27:56.461Z,21.38
2023-05-14T08:30:23.771Z,21.41
2023-05-14T08:32:51.296Z,21.45
2023-05-14T08:35:18.360Z,21.62
2023-05-14T08:37:45.614Z,21.69
2023-05-14T08:40:12.742Z,21.64
2023-05-14T08:42:45.071Z,21.56
2023-05-14T08:45:22.160Z,21.67
2023-05-14T08:47:50.660Z,21.79
2023-05-14T08:50:21.024Z,21.90
2023-05-14T08:52:49.633Z,21.95
2023-05-14T08:55:16.666Z,22.12
2023-05-14T08:57:43.812Z,22.27
2023-05-14T09:00:11.952Z,22.23
2023-05-14T09:02:42.492Z,22.07
2023-05-14T09:05:10.003Z,21.82
2023-05-14T09:07:37.033Z,21.91
2023-05-14T09:10:04.893Z,21.96
2023-05-14T09:12:34.007Z,22.12
2023-05-14T09:15:01.120Z,22.27
2023-05-14T09:17:29.273Z,22.31
2023-05-14T09:19:56.552Z,22.14
2023-05-14T09:22:23.627Z,21.99
2023-05-14T09:25:05.524Z,21.69
2023-05-14T09:27:34.936Z,21.45
2023-05-14T09:30:12.794Z,21.50
2023-05-14T09:32:41.340Z,21.48
2023-05-14T09:35:18.874Z,21.53
2023-05-14T09:37:47.110Z,21.64
2023-05-14T09:40:14.649Z,21.49
2023-05-14T09:42:41.728Z,21.29
2023-05-14T09:45:09.699Z,21.04
2023-05-14T09:47:37.428Z,20.83
2023-05-14T09:50:05.406Z,20.72
2023-05-14T09:52:32.678Z,20.82
2023-05-14T09:55:00.313Z,20.82
2023-05-14T09:57:27.515Z,20.77
2023-05-14T09:59:54.585Z,20.69
2023-05-14T10:02:36.971Z,20.43
2023-05-14T10:05:05.953Z,20.22
2023-05-14T10:07:44.674Z,20.04
2023-05-14T10:10:15.788Z,20.04
2023-05-14T10:12:44.799Z,20.21
2023-05-14T10:15:20.861Z,20.15
2023-05-14T10:17:50.054Z,19.93
2023-05-14T10:20:17.834Z,19.80
2023-05-14T10:22:44.936Z,19.62
2023-05-14T10:25:12.186Z,19.42
2023-05-14T10:27:39.417Z,19.25
2023-05-14T10:30:11.264Z,19.14
2023-05-14T10:32:38.282Z,19.21
2023-05-14T10:35:20.684Z,19.35
2023-05-14T10:37:48.230Z,19.37
2023-05-14T10:40:15.445Z,19.50
2023-05-14T10:42:43.628Z,19.51
2023-05-14T10:45:12.005Z,19.44
2023-05-14T10:47:40.294Z,19.35
2023-05-14T10:50:10.823Z,19.24
2023-05-14T10:52:37.960Z,19.12
2023-05-14T10:55:09.316Z,19.11
2023-05-14T10:57:38.441Z,19.11
2023-05-14T11:00:07.797Z,19.05
2023-05-14T11:02:39.703Z,18.99
2023-05-14T11:05:08.713Z,18.93
2023-05-14T11:07:36.998Z,18.90
2023-05-14T11:10:08.447Z,18.98
2023-05-14T11:12:37.092Z,19.02
2023-05-14T11:15:06.429Z,19.00
2023-05-14T11:17:34.867Z,19.02
2023-05-14T11:20:01.897Z,19.11
2023-05-14T11:22:32.869Z,19.18
2023-05-14T11:25:00.040Z,19.41
2023-05-14T11:27:27.182Z,19.60
2023-05-14T11:29:55.988Z,19.67
2023-05-14T11:32:23.244Z,19.68
2023-05-14T11:34:51.338Z,19.59
2023-05-14T11:37:18.582Z,19.56
2023-05-14T11:39:49.797Z,19.51
2023-05-14T11:42:18.799Z,19.42
2023-05-14T11:44:50.108Z,19.37
2023-05-14T11:47:18.416Z,19.25
2023-05-14T11:49:45.833Z,19.13
2023-05-14T11:52:19.526Z,19.18
2023-05-14T11:54:47.195Z,19.14
2023-05-14T11:57:19.645Z,19.08
2023-05-14T11:59:47.723Z,19.03
2023-05-14T12:02:18.798Z,18.96
2023-05-14T12:04:50.184Z,18.95
2023-05-14T12:07:17.279Z,18.91
2023-05-14T12:09:50.128Z,18.83
2023-05-14T12:12:21.626Z,18.75
2023-05-14T12:14:49.385Z,18.69
2023-05-14T12:17:17.458Z,18.65
2023-05-14T12:19:45.163Z,18.61
2023-05-14T12:22:12.638Z,18.59
2023-05-14T12:24:39.735Z,18.45
2023-05-14T12:27:07.141Z,18.37
2023-05-14T12:29:39.061Z,18.35
2023-05-14T12:32:09.590Z,18.34
2023-05-14T12:34:37.790Z,18.24
2023-05-14T12:37:06.200Z,18.19
2023-05-14T12:39:34.049Z,18.16
2023-05-14T12:42:01.634Z,18.01
2023-05-14T12:44:29.961Z,17.96
2023-05-14T12:46:57.854Z,17.93
2023-05-14T12:49:25.120Z,17.95
2023-05-14T12:51:59.617Z,17.81
2023-05-14T12:54:35.336Z,17.65
2023-05-14T12:57:03.840Z,17.57
2023-05-14T12:59:31.134Z,17.43
2023-05-14T13:01:58.230Z,17.35
2023-05-14T13:04:27.591Z,17.24
2023-05-14T13:07:01.057Z,17.13
2023-05-14T13:09:28.222Z,17.07
2023-05-14T13:11:55.359Z,17.07
2023-05-14T13:14:22.396Z,17.21
2023-05-14T13:16:49.483Z,17.32
2023-05-14T13:19:16.764Z,17.43
2023-05-14T13:21:44.032Z,17.47
2023-05-14T13:24:11.118Z,17.55
2023-05-14T13:26:38.150Z,17.62
2023-05-14T13:29:05.362Z,17.64
2023-05-14T13:31:32.738Z,17.60
2023-05-14T13:34:00.130Z,17.45
2023-05-14T13:36:27.133Z,17.37
2023-05-14T13:38:54.179Z,17.46
2023-05-14T13:41:21.766Z,17.44
2023-05-14T13:43:48.760Z,17.34
2023-05-14T13:46:15.757Z,17.16
2023-05-14T13:48:42.707Z,17.02
2023-05-14T13:51:09.793Z,16.97
2023-05-14T13:53:36.940Z,16.89
2023-05-14T13:56:06.566Z,16.86
2023-05-14T13:58:33.549Z,16.69
2023-05-14T14:01:00.777Z,16.57
2023-05-14T14:03:27.840Z,16.45
2023-05-14T14:05:54.911Z,16.26
2023-05-14T14:08:24.360Z,16.10
2023-05-14T14:10:52.599Z,15.99
2023-05-14T14:13:21.311Z,15.90
2023-05-14T14:15:48.831Z,15.85
2023-05-14T14:18:16.012Z,15.83
2023-05-14T14:20:43.190Z,15.89
2023-05-14T14:23:16.816Z,15.92
2023-05-14T14:25:44.323Z,15.98
2023-05-14T14:28:11.349Z,16.01
2023-05-14T14:30:38.445Z,15.89
2023-05-14T14:33:05.574Z,15.74
2023-05-14T14:35:33.593Z,15.67
2023-05-14T14:38:00.550Z,15.71
2023-05-14T14:40:27.678Z,15.80
2023-05-14T14:42:54.756Z,15.78
2023-05-14T14:45:21.937Z,15.76
2023-05-14T14:47:49.531Z,15.66
2023-05-14T14:50:16.696Z,15.63
2023-05-14T14:52:45.598Z,15.56
2023-05-14T14:55:13.139Z,15.58
2023-05-14T14:57:40.270Z,15.63
2023-05-14T15:00:07.766Z,15.67
2023-05-14T15:02:35.830Z,15.66
2023-05-14T15:05:02.863Z,15.65
2023-05-14T15:07:33.097Z,15.64
2023-05-14T15:10:00.393Z,15.65
2023-05-14T15:12:27.430Z,15.64
2023-05-14T15:14:54.326Z,15.67
2023-05-14T15:17:21.834Z,15.62
2023-05-14T15:19:48.849Z,15.52
2023-05-14T15:22:16.059Z,15.45
2023-05-14T15:24:43.088Z,15.39
2023-05-14T15:27:10.451Z,15.36
2023-05-14T15:29:37.596Z,15.29
2023-05-14T15:32:04.862Z,15.24
2023-05-14T15:34:32.281Z,15.18
2023-05-14T15:36:59.246Z,15.15
2023-05-14T15:39:26.923Z,15.13
2023-05-14T15:41:55.313Z,15.12
2023-05-14T15:44:22.499Z,15.11
2023-05-14T15:46:49.727Z,15.06
2023-05-14T15:49:17.008Z,15.02
2023-05-14T15:51:44.054Z,14.97
2023-05-14T15:54:11.083Z,14.91
2023-05-14T15:56:38.195Z,14.87
2023-05-14T15:59:05.121Z,14.83
2023-05-14T16:01:32.249Z,14.77
2023-05-14T16:03:59.259Z,14.70
2023-05-14T16:06:26.319Z,14.64
2023-05-14T16:08:53.426Z,14.60
2023-05-14T16:11:21.552Z,14.57
2023-05-14T16:13:48.681Z,14.54
2023-05-14T16:16:16.179Z,14.49
2023-05-14T16:18:43.359Z,14.42
2023-05-14T16:21:10.279Z,14.35
2023-05-14T16:23:37.292Z,14.26
2023-05-14T16:26:05.220Z,14.15
2023-05-14T16:28:32.329Z,14.13
2023-05-14T16:31:00.850Z,14.09
2023-05-14T16:33:29.250Z,14.01
2023-05-14T16:35:56.268Z,13.95
2023-05-14T16:38:24.470Z,13.88
2023-05-14T16:40:51.437Z,13.80
2023-05-14T16:43:18.610Z,13.69
2023-05-14T16:45:45.596Z,13.64
2023-05-14T16:48:12.645Z,13.66
2023-05-14T16:50:39.764Z,13.67
2023-05-14T16:53:06.812Z,13.67
2023-05-14T16:55:33.895Z,13.67
2023-05-14T16:58:00.805Z,13.59
2023-05-14T17:00:27.865Z,13.55
2023-05-14T17:02:55.082Z,13.46
2023-05-14T17:05:22.220Z,13.36
2023-05-14T17:07:49.388Z,13.26
2023-05-14T17:10:16.521Z,13.18
2023-05-14T17:12:43.704Z,13.10
2023-05-14T17:15:11.175Z,13.05
2023-05-14T17:17:38.393Z,13.01
2023-05-14T17:20:06.551Z,12.97
2023-05-14T17:22:33.481Z,12.91
2023-05-14T17:25:00.434Z,12.88
2023-05-14T17:27:29.300Z,12.82
2023-05-14T17:29:56.303Z,12.78
2023-05-14T17:32:23.512Z,12.75
2023-05-14T17:34:51.178Z,12.68
2023-05-14T17:37:18.325Z,12.61
2023-05-14T17:39:45.363Z,12.55
2023-05-14T17:42:13.620Z,12.53
2023-05-14T17:44:40.690Z,12.50
2023-05-14T17:47:08.895Z,12.45
2023-05-14T17:49:35.888Z,12.41
2023-05-14T17:52:02.988Z,12.37
2023-05-14T17:54:30.091Z,12.33
2023-05-14T17:56:57.170Z,12.32
2023-05-14T17:59:24.553Z,12.29
2023-05-14T18:01:51.693Z,12.29
2023-05-14T18:04:18.739Z,12.26
2023-05-14T18:06:45.956Z,12.22
2023-05-14T18:09:12.960Z,12.18
2023-05-14T18:11:39.994Z,12.14
2023-05-14T18:14:07.133Z,12.08
2023-05-14T18:16:34.308Z,12.04
2023-05-14T18:19:01.526Z,11.97
2023-05-14T18:21:28.622Z,11.92
2023-05-14T18:23:56.077Z,11.84
2023-05-14T18:26:23.255Z,11.79
2023-05-14T18:28:50.486Z,11.77
2023-05-14T18:31:17.577Z,11.74
2023-05-14T18:33:44.569Z,11.73
2023-05-14T18:36:11.698Z,11.68
2023-05-14T18:38:38.740Z,11.68
2023-05-14T18:41:05.758Z,11.70
2023-05-14T18:43:32.930Z,11.70
2023-05-14T18:46:00.009Z,11.65
2023-05-14T18:48:27.218Z,11.62
2023-05-14T18:50:54.620Z,11.54
2023-05-14T18:53:21.702Z,11.47
2023-05-14T18:55:48.688Z,11.42
2023-05-14T18:58:16.631Z,11.39
2023-05-14T19:00:45.141Z,11.36
2023-05-14T19:03:16.325Z,11.30
2023-05-14T19:05:43.506Z,11.28
2023-05-14T19:08:11.638Z,11.24
2023-05-14T19:10:39.296Z,11.20
2023-05-14T19:13:06.629Z,11.17
2023-05-14T19:15:33.784Z,11.10
2023-05-14T19:18:00.979Z,11.05
2023-05-14T19:20:28.354Z,11.01
2023-05-14T19:22:55.408Z,10.98
2023-05-14T19:25:22.492Z,10.95
2023-05-14T19:27:58.008Z,10.87
2023-05-14T19:30:26.139Z,10.80
2023-05-14T19:32:55.992Z,10.73
2023-05-14T19:35:23.757Z,10.70
2023-05-14T19:37:51.479Z,10.63
2023-05-14T19:40:19.087Z,10.57
2023-05-14T19:42:46.481Z,10.51
2023-05-14T19:45:14.348Z,10.50
2023-05-14T19:47:43.216Z,10.43
2023-05-14T19:50:16.646Z,10.38
2023-05-14T19:52:44.788Z,10.30
2023-05-14T19:55:12.619Z,10.22
2023-05-14T19:57:40.457Z,10.14
2023-05-14T20:00:13.820Z,10.10
2023-05-14T20:02:44.389Z,10.04
2023-05-14T20:05:12.486Z,9.99
2023-05-14T20:07:40.604Z,9.93
2023-05-14T20:10:09.447Z,9.90
2023-05-14T20:12:37.451Z,9.87
2023-05-14T20:15:10.074Z,9.81
2023-05-14T20:17:41.943Z,9.80
2023-05-14T20:20:13.950Z,9.78
2023-05-14T20:22:44.308Z,9.73
2023-05-14T20:25:11.499Z,9.71
2023-05-14T20:27:38.588Z,9.70
2023-05-14T20:30:06.496Z,9.68
2023-05-14T20:32:33.478Z,9.64
2023-05-14T20:35:02.286Z,9.62
2023-05-14T20:37:34.812Z,9.60
2023-05-14T20:40:06.129Z,9.59
2023-05-14T20:42:33.284Z,9.54
2023-05-14T20:45:00.438Z,9.52
2023-05-14T20:47:30.570Z,9.52
2023-05-14T20:49:57.813Z,9.49
2023-05-14T20:52:24.941Z,9.45
2023-05-14T20:54:52.168Z,9.40
2023-05-14T20:57:19.439Z,9.34
2023-05-14T20:59:46.731Z,9.32
2023-05-14T21:02:14.166Z,9.28
2023-05-14T21:04:41.514Z,9.25
2023-05-14T21:07:08.644Z,9.23
2023-05-14T21:09:35.573Z,9.18
2023-05-14T21:12:02.476Z,9.17
2023-05-14T21:14:29.618Z,9.19
2023-05-14T21:16:56.703Z,9.18
2023-05-14T21:19:23.740Z,9.15
2023-05-14T21:21:50.900Z,9.13
2023-05-14T21:24:19.097Z,9.13
2023-05-14T21:26:46.488Z,9.13
2023-05-14T21:29:13.541Z,9.15
2023-05-14T21:31:40.917Z,9.11
2023-05-14T21:34:07.999Z,9.08
2023-05-14T21:36:35.158Z,9.03
2023-05-14T21:39:02.185Z,8.97
2023-05-14T21:41:31.521Z,8.95
2023-05-14T21:43:58.628Z,8.92
2023-05-14T21:46:25.970Z,8.93
2023-05-14T21:48:53.102Z,8.90
2023-05-14T21:51:20.506Z,8.84
2023-05-14T21:53:48.449Z,8.78
2023-05-14T21:56:15.640Z,8.76
2023-05-14T21:58:42.601Z,8.72
2023-05-14T22:01:11.514Z,8.75
2023-05-14T22:03:38.696Z,8.82
2023-05-14T22:06:05.904Z,8.79
2023-05-14T22:08:33.030Z,8.78
2023-05-14T22:11:00.181Z,8.77
2023-05-14T22:13:27.104Z,8.78
2023-05-14T22:16:01.538Z,8.72
2023-05-14T22:18:39.028Z,8.65
2023-05-14T22:21:06.265Z,8.60
2023-05-14T22:23:33.331Z,8.57
2023-05-14T22:26:00.426Z,8.54
2023-05-14T22:28:27.430Z,8.53
2023-05-14T22:30:55.254Z,8.50
2023-05-14T22:33:22.537Z,8.49
2023-05-14T22:35:49.563Z,8.44
2023-05-14T22:38:16.733Z,8.42
2023-05-14T22:40:43.770Z,8.40
2023-05-14T22:43:10.973Z,8.40
2023-05-14T22:45:38.011Z,8.40
2023-05-14T22:48:05.154Z,8.40
2023-05-14T22:50:32.169Z,8.41
2023-05-14T22:52:59.138Z,8.41
2023-05-14T22:55:26.514Z,8.41
2023-05-14T22:57:53.649Z,8.43
2023-05-14T23:00:20.571Z,8.43
2023-05-14T23:02:47.620Z,8.44
2023-05-14T23:05:14.876Z,8.48
2023-05-14T23:07:41.920Z,8.53
2023-05-14T23:10:09.344Z,8.51
2023-05-14T23:12:36.458Z,8.49
2023-05-14T23:15:03.786Z,8.46
2023-05-14T23:17:37.473Z,8.44
2023-05-14T23:20:10.644Z,8.43
2023-05-14T23:22:37.665Z,8.36
2023-05-14T23:25:05.325Z,8.29
2023-05-14T23:27:32.546Z,8.29
2023-05-14T23:29:59.699Z,8.34
2023-05-14T23:32:26.901Z,8.43
2023-05-14T23:34:54.046Z,8.47
2023-05-14T23:37:21.049Z,8.48
2023-05-14T23:39:48.052Z,8.47
2023-05-14T23:42:15.081Z,8.44
2023-05-14T23:44:42.110Z,8.37
2023-05-14T23:47:09.138Z,8.34
2023-05-14T23:49:36.674Z,8.39
2023-05-14T23:52:03.829Z,8.39
2023-05-14T23:54:30.911Z,8.37
2023-05-14T23:56:57.908Z,8.32
2023-05-14T23:59:24.841Z,8.26
